createdAt,value
2023-05-12T00:00:00.365Z,4.90
2023-05-12T00:02:01.842Z,4.43
2023-05-12T00:04:03.724Z,4.50
2023-05-12T00:06:05.567Z,5.03
2023-05-12T00:08:07.420Z,4.82
2023-05-12T00:10:09.278Z,4.50
2023-05-12T00:12:11.649Z,4.70
2023-05-12T00:14:13.132Z,4.90
2023-05-12T00:16:15.823Z,5.10
2023-05-12T00:18:17.894Z,7.88
2023-05-12T00:20:19.800Z,4.88
2023-05-12T00:22:21.511Z,4.90
2023-05-12T00:24:23.052Z,5.05
2023-05-12T00:26:24.710Z,4.70
2023-05-12T00:28:26.203Z,4.78
2023-05-12T00:30:27.657Z,4.22
2023-05-12T00:32:29.481Z,5.32
2023-05-12T00:34:31.119Z,5.75
2023-05-12T00:36:32.613Z,6.10
2023-05-12T00:38:34.608Z,5.00
2023-05-12T00:40:36.438Z,6.07
2023-05-12T00:42:38.251Z,6.00
2023-05-12T00:44:39.807Z,5.32
2023-05-12T00:46:41.555Z,7.15
2023-05-12T00:48:44.246Z,5.75
2023-05-12T00:50:45.987Z,5.80
2023-05-12T00:52:48.894Z,7.70
2023-05-12T00:54:50.641Z,5.60
2023-05-12T00:56:52.405Z,10.02
2023-05-12T00:58:53.854Z,5.80
2023-05-12T01:00:56.278Z,6.70
2023-05-12T01:02:58.641Z,12.18
2023-05-12T01:05:00.506Z,5.63
2023-05-12T01:07:08.493Z,9.30
2023-05-12T01:09:10.279Z,6.53
2023-05-12T01:11:12.017Z,7.10
2023-05-12T01:13:13.528Z,7.00
2023-05-12T01:15:15.264Z,6.72
2023-05-12T01:17:20.609Z,6.18
2023-05-12T01:19:34.400Z,6.25
2023-05-12T01:21:36.147Z,6.82
2023-05-12T01:23:42.485Z,7.45
2023-05-12T01:25:46.480Z,8.07
2023-05-12T01:27:49.382Z,6.75
2023-05-12T01:29:52.312Z,6.47
2023-05-12T01:31:54.907Z,9.07
2023-05-12T01:33:56.477Z,7.53
2023-05-12T01:35:57.945Z,8.15
2023-05-12T01:37:59.392Z,6.53
2023-05-12T01:40:00.983Z,7.00
2023-05-12T01:42:03.784Z,7.63
2023-05-12T01:44:05.428Z,9.40
2023-05-12T01:46:06.893Z,6.80
2023-05-12T01:48:08.414Z,7.20
2023-05-12T01:50:10.510Z,7.88
2023-05-12T01:52:11.972Z,6.95
2023-05-12T01:54:13.770Z,7.20
2023-05-12T01:56:15.385Z,8.02
2023-05-12T01:58:16.882Z,8.18
2023-05-12T02:00:18.742Z,10.98
2023-05-12T02:02:20.531Z,7.47
2023-05-12T02:04:22.040Z,9.38
2023-05-12T02:06:23.790Z,6.70
2023-05-12T02:08:25.946Z,7.18
2023-05-12T02:10:27.783Z,6.78
2023-05-12T02:12:29.299Z,11.75
2023-05-12T02:14:30.857Z,7.28
2023-05-12T02:16:32.350Z,6.82
2023-05-12T02:18:33.880Z,6.50
2023-05-12T02:20:36.209Z,7.57
2023-05-12T02:22:37.691Z,7.25
2023-05-12T02:24:39.156Z,7.03
2023-05-12T02:26:40.637Z,7.20
2023-05-12T02:28:42.122Z,6.75
2023-05-12T02:30:50.252Z,7.43
2023-05-12T02:32:51.733Z,7.43
2023-05-12T02:34:53.342Z,8.57
2023-05-12T02:36:54.837Z,9.15
2023-05-12T02:38:56.308Z,8.82
2023-05-12T02:40:58.048Z,8.60
2023-05-12T02:42:59.501Z,8.25
2023-05-12T02:45:01.077Z,9.80
2023-05-12T02:47:02.620Z,10.02
2023-05-12T02:49:04.456Z,9.80
2023-05-12T02:51:05.972Z,8.85
2023-05-12T02:53:07.495Z,9.18
2023-05-12T02:55:09.185Z,9.50
2023-05-12T02:57:11.680Z,10.77
2023-05-12T02:59:13.197Z,10.43
2023-05-12T03:01:14.804Z,11.23
2023-05-12T03:03:16.384Z,9.73
2023-05-12T03:05:18.036Z,10.85
2023-05-12T03:07:19.545Z,11.30
2023-05-12T03:09:21.030Z,11.15
2023-05-12T03:11:22.808Z,12.23
2023-05-12T03:13:24.314Z,12.35
2023-05-12T03:15:25.790Z,16.20
2023-05-12T03:17:27.334Z,13.88
2023-05-12T03:19:28.907Z,13.07
2023-05-12T03:21:30.427Z,15.18
2023-05-12T03:23:31.956Z,13.80
2023-05-12T03:25:35.060Z,12.25
2023-05-12T03:27:36.820Z,14.75
2023-05-12T03:29:38.282Z,14.77
2023-05-12T03:31:40.060Z,13.38
2023-05-12T03:33:41.614Z,15.57
2023-05-12T03:35:43.091Z,15.65
2023-05-12T03:37:44.666Z,14.50
2023-05-12T03:39:46.168Z,13.93
2023-05-12T03:41:47.625Z,12.90
2023-05-12T03:43:49.341Z,13.10
2023-05-12T03:45:50.820Z,14.40
2023-05-12T03:47:52.505Z,14.55
2023-05-12T03:49:53.956Z,14.00
2023-05-12T03:51:55.448Z,13.52
2023-05-12T03:53:56.910Z,18.52
2023-05-12T03:56:03.483Z,13.35
2023-05-12T03:58:04.973Z,12.43
2023-05-12T04:00:07.251Z,13.30
2023-05-12T04:02:11.770Z,13.13
2023-05-12T04:04:13.329Z,13.77
2023-05-12T04:06:14.871Z,16.98
2023-05-12T04:08:16.319Z,15.40
2023-05-12T04:10:18.133Z,16.23
2023-05-12T04:12:19.819Z,22.27
2023-05-12T04:14:29.040Z,16.80
2023-05-12T04:16:37.177Z,19.98
2023-05-12T04:18:38.973Z,17.65
2023-05-12T04:20:40.680Z,17.48
2023-05-12T04:22:42.300Z,18.08
2023-05-12T04:24:43.754Z,16.35
2023-05-12T04:26:45.338Z,16.95
2023-05-12T04:28:47.794Z,16.85
2023-05-12T04:30:49.376Z,19.38
2023-05-12T04:32:50.900Z,16.63
2023-05-12T04:34:55.248Z,18.48
2023-05-12T04:36:57.015Z,21.77
2023-05-12T04:38:58.459Z,19.48
2023-05-12T04:41:00.688Z,20.52
2023-05-12T04:43:02.182Z,20.15
2023-05-12T04:45:03.937Z,18.95
2023-05-12T04:47:05.651Z,22.23
2023-05-12T04:49:07.161Z,24.23
2023-05-12T04:51:08.811Z,20.85
2023-05-12T04:53:11.469Z,20.15
2023-05-12T04:55:13.048Z,19.25
2023-05-12T04:57:14.617Z,21.50
2023-05-12T04:59:16.434Z,24.90
2023-05-12T05:01:18.247Z,22.00
2023-05-12T05:03:19.999Z,23.20
2023-05-12T05:05:21.914Z,25.25
2023-05-12T05:07:23.624Z,19.60
2023-05-12T05:09:25.085Z,18.02
2023-05-12T05:11:26.926Z,20.52
2023-05-12T05:13:28.382Z,22.58
2023-05-12T05:15:29.848Z,23.80
2023-05-12T05:17:31.329Z,18.88
2023-05-12T05:19:46.127Z,18.05
2023-05-12T05:21:53.938Z,19.92
2023-05-12T05:23:55.387Z,18.63
2023-05-12T05:25:56.855Z,18.45
2023-05-12T05:27:58.452Z,18.10
2023-05-12T05:29:59.987Z,19.27
2023-05-12T05:32:01.547Z,19.60
2023-05-12T05:34:03.172Z,17.00
2023-05-12T05:36:06.359Z,17.17
2023-05-12T05:38:07.825Z,17.88
2023-05-12T05:40:09.854Z,17.95
2023-05-12T05:42:11.399Z,18.50
2023-05-12T05:44:12.855Z,17.67
2023-05-12T05:46:14.348Z,17.70
2023-05-12T05:48:15.896Z,16.10
2023-05-12T05:50:17.455Z,15.88
2023-05-12T05:52:19.014Z,15.63
2023-05-12T05:54:22.954Z,15.73
2023-05-12T05:56:24.406Z,13.38
2023-05-12T05:58:25.870Z,14.95
2023-05-12T06:00:27.355Z,15.80
2023-05-12T06:02:28.886Z,17.10
2023-05-12T06:04:30.583Z,22.33
2023-05-12T06:06:32.656Z,27.52
2023-05-12T06:08:34.152Z,16.70
2023-05-12T06:10:35.599Z,18.42
2023-05-12T06:12:37.131Z,14.60
2023-05-12T06:14:38.583Z,19.00
2023-05-12T06:16:40.087Z,17.80
2023-05-12T06:18:41.611Z,17.42
2023-05-12T06:20:43.323Z,17.23
2023-05-12T06:22:44.784Z,13.57
2023-05-12T06:24:46.258Z,14.48
2023-05-12T06:26:47.768Z,16.63
2023-05-12T06:28:49.208Z,18.67
2023-05-12T06:30:50.694Z,17.05
2023-05-12T06:32:52.235Z,13.88
2023-05-12T06:34:53.802Z,14.45
2023-05-12T06:36:55.317Z,14.63
2023-05-12T06:38:57.279Z,13.73
2023-05-12T06:40:58.750Z,15.93
2023-05-12T06:43:00.338Z,13.02
2023-05-12T06:45:01.843Z,16.05
2023-05-12T06:47:03.504Z,12.40
2023-05-12T06:49:05.351Z,15.65
2023-05-12T06:51:07.408Z,12.80
2023-05-12T06:53:09.228Z,13.57
2023-05-12T06:55:10.804Z,16.20
2023-05-12T06:57:12.266Z,12.02
2023-05-12T06:59:14.206Z,14.10
2023-05-12T07:01:16.405Z,13.40
2023-05-12T07:03:17.936Z,12.48
2023-05-12T07:05:19.934Z,14.77
2023-05-12T07:07:21.698Z,11.45
2023-05-12T07:09:23.153Z,16.13
2023-05-12T07:11:24.629Z,8.90
2023-05-12T07:13:26.240Z,17.13
2023-05-12T07:15:27.713Z,8.95
2023-05-12T07:17:29.244Z,13.32
2023-05-12T07:19:30.797Z,13.73
2023-05-12T07:21:32.413Z,7.65
2023-05-12T07:23:34.866Z,10.38
2023-05-12T07:25:36.458Z,11.45
2023-05-12T07:27:37.960Z,16.77
2023-05-12T07:29:39.437Z,8.13
2023-05-12T07:31:41.070Z,10.55
2023-05-12T07:33:42.720Z,7.30
2023-05-12T07:35:44.663Z,7.00
2023-05-12T07:37:46.136Z,9.32
2023-05-12T07:39:47.609Z,6.72
2023-05-12T07:41:50.453Z,6.70
2023-05-12T07:43:52.138Z,5.90
2023-05-12T07:45:54.666Z,10.40
2023-05-12T07:47:56.173Z,6.88
2023-05-12T07:49:58.068Z,6.68
2023-05-12T07:51:59.596Z,6.43
2023-05-12T07:54:01.552Z,10.13
2023-05-12T07:56:03.070Z,6.53
2023-05-12T07:58:04.618Z,9.07
2023-05-12T08:00:06.756Z,4.57
2023-05-12T08:02:08.536Z,12.73
2023-05-12T08:04:10.301Z,8.88
2023-05-12T08:06:11.796Z,9.35
2023-05-12T08:08:16.679Z,7.40
2023-05-12T08:10:19.491Z,8.10
2023-05-12T08:12:21.327Z,11.98
2023-05-12T08:14:22.922Z,7.38
2023-05-12T08:16:24.450Z,6.35
2023-05-12T08:18:25.985Z,10.13
2023-05-12T08:20:27.502Z,5.93
2023-05-12T08:22:29.092Z,7.85
2023-05-12T08:24:30.668Z,15.43
2023-05-12T08:26:34.849Z,8.18
2023-05-12T08:28:36.343Z,6.07
2023-05-12T08:30:37.882Z,6.35
2023-05-12T08:32:39.609Z,5.55
2023-05-12T08:34:41.153Z,8.65
2023-05-12T08:36:42.974Z,9.75
2023-05-12T08:38:44.460Z,7.80
2023-05-12T08:41:23.113Z,10.30
2023-05-12T08:43:26.671Z,6.43
2023-05-12T08:45:29.552Z,11.07
2023-05-12T08:47:33.656Z,11.18
2023-05-12T08:49:36.366Z,15.18
2023-05-12T08:51:40.470Z,5.65
2023-05-12T08:53:42.503Z,8.20
2023-05-12T08:55:54.380Z,4.68
2023-05-12T08:58:03.773Z,5.15
2023-05-12T09:00:08.856Z,6.10
2023-05-12T09:02:11.283Z,8.63
2023-05-12T09:04:15.384Z,14.88
2023-05-12T09:06:17.597Z,8.07
2023-05-12T09:08:19.272Z,10.15
2023-05-12T09:10:34.258Z,6.00
2023-05-12T09:12:37.922Z,5.05
2023-05-12T09:14:40.717Z,6.97
2023-05-12T09:16:45.908Z,4.90
2023-05-12T09:18:51.745Z,9.38
2023-05-12T09:20:53.276Z,4.85
2023-05-12T09:22:56.732Z,6.95
2023-05-12T09:24:58.227Z,4.30
2023-05-12T09:26:59.757Z,4.47
2023-05-12T09:29:08.345Z,5.65
2023-05-12T09:31:20.854Z,5.32
2023-05-12T09:33:22.961Z,6.88
2023-05-12T09:35:25.612Z,4.35
2023-05-12T09:37:32.380Z,4.97
2023-05-12T09:39:34.095Z,7.38
2023-05-12T09:41:43.186Z,10.75
2023-05-12T09:43:46.100Z,3.50
2023-05-12T09:45:50.141Z,2.88
2023-05-12T09:47:51.731Z,6.53
2023-05-12T09:49:53.394Z,7.35
2023-05-12T09:52:01.522Z,8.38
2023-05-12T09:54:03.564Z,8.93
2023-05-12T09:56:06.259Z,4.45
2023-05-12T09:58:09.937Z,4.72
2023-05-12T10:00:31.385Z,3.83
2023-05-12T10:02:40.614Z,5.05
2023-05-12T10:04:47.660Z,3.83
2023-05-12T10:06:49.607Z,2.67
2023-05-12T10:08:56.448Z,4.70
2023-05-12T10:11:00.231Z,4.85
2023-05-12T10:13:01.806Z,3.60
2023-05-12T10:15:04.293Z,8.68
2023-05-12T10:17:07.190Z,6.45
2023-05-12T10:19:10.449Z,4.55
2023-05-12T10:21:12.961Z,4.53
2023-05-12T10:23:16.793Z,7.95
2023-05-12T10:25:18.614Z,5.20
2023-05-12T10:27:22.442Z,6.55
2023-05-12T10:29:32.751Z,7.95
2023-05-12T10:31:36.216Z,5.05
2023-05-12T10:33:37.765Z,5.30
2023-05-12T10:35:40.095Z,4.45
2023-05-12T10:37:42.948Z,4.80
2023-05-12T10:39:49.075Z,9.10
2023-05-12T10:42:01.559Z,5.18
2023-05-12T10:44:03.080Z,7.60
2023-05-12T10:46:10.417Z,8.15
2023-05-12T10:48:15.674Z,3.33
2023-05-12T10:50:27.389Z,3.40
2023-05-12T10:52:28.860Z,6.50
2023-05-12T10:54:39.474Z,7.45
2023-05-12T10:56:45.094Z,3.35
2023-05-12T10:59:32.302Z,4.00
2023-05-12T11:01:34.763Z,2.25
2023-05-12T11:03:38.246Z,5.53
2023-05-12T11:05:40.354Z,3.80
2023-05-12T11:07:47.923Z,9.73
2023-05-12T11:09:58.514Z,5.33
2023-05-12T11:12:02.119Z,4.95
2023-05-12T11:14:04.397Z,7.60
2023-05-12T11:16:06.131Z,7.72
2023-05-12T11:18:08.412Z,3.55
2023-05-12T11:20:10.798Z,8.48
2023-05-12T11:22:12.984Z,5.43
2023-05-12T11:24:16.610Z,5.05
2023-05-12T11:26:18.760Z,5.20
2023-05-12T11:28:20.291Z,3.60
2023-05-12T11:30:22.303Z,5.50
2023-05-12T11:32:23.828Z,3.28
2023-05-12T11:34:27.152Z,6.68
2023-05-12T11:36:28.790Z,5.32
2023-05-12T11:38:30.346Z,4.63
2023-05-12T11:40:31.799Z,7.88
2023-05-12T11:42:33.475Z,6.90
2023-05-12T11:44:35.821Z,2.45
2023-05-12T11:46:37.317Z,7.32
2023-05-12T11:48:38.763Z,10.00
2023-05-12T11:50:48.659Z,7.65
2023-05-12T11:52:51.596Z,4.93
2023-05-12T11:54:58.026Z,2.25
2023-05-12T11:57:01.240Z,5.68
2023-05-12T11:59:02.868Z,4.60
2023-05-12T12:01:13.818Z,5.28
2023-05-12T12:03:16.736Z,5.13
2023-05-12T12:05:21.040Z,2.85
2023-05-12T12:07:30.229Z,3.88
2023-05-12T12:09:40.688Z,3.83
2023-05-12T12:11:42.168Z,4.20
2023-05-12T12:13:56.426Z,3.28
2023-05-12T12:15:58.008Z,3.15
2023-05-12T12:17:59.900Z,2.75
2023-05-12T12:20:01.617Z,5.85
2023-05-12T12:22:03.140Z,2.25
2023-05-12T12:24:06.146Z,3.83
2023-05-12T12:26:07.986Z,2.65
2023-05-12T12:28:09.496Z,2.72
2023-05-12T12:30:11.701Z,4.65
2023-05-12T12:32:13.271Z,4.70
2023-05-12T12:34:14.749Z,4.93
2023-05-12T12:36:16.211Z,5.20
2023-05-12T12:38:17.740Z,6.20
2023-05-12T12:40:20.151Z,3.67
2023-05-12T12:42:22.277Z,3.88
2023-05-12T12:44:23.754Z,1.90
2023-05-12T12:46:25.694Z,3.42
2023-05-12T12:48:28.533Z,2.60
2023-05-12T12:50:30.386Z,1.55
2023-05-12T12:52:32.752Z,13.18
2023-05-12T12:54:34.545Z,3.78
2023-05-12T12:56:36.079Z,7.47
2023-05-12T12:58:37.536Z,2.55
2023-05-12T13:00:39.102Z,1.90
2023-05-12T13:02:40.691Z,3.97
2023-05-12T13:04:42.295Z,2.83
2023-05-12T13:06:43.772Z,3.17
2023-05-12T13:08:45.307Z,6.25
2023-05-12T13:10:46.881Z,2.85
2023-05-12T13:12:48.401Z,4.72
2023-05-12T13:14:49.872Z,4.07
2023-05-12T13:16:52.843Z,4.18
2023-05-12T13:18:54.477Z,3.05
2023-05-12T13:20:56.000Z,2.78
2023-05-12T13:22:57.505Z,8.45
2023-05-12T13:24:59.000Z,4.15
2023-05-12T13:27:00.599Z,3.08
2023-05-12T13:29:02.127Z,2.30
2023-05-12T13:31:03.728Z,4.82
2023-05-12T13:33:06.240Z,5.93
2023-05-12T13:35:08.855Z,4.50
2023-05-12T13:37:10.390Z,4.78
2023-05-12T13:39:12.683Z,1.95
2023-05-12T13:41:14.215Z,3.70
2023-05-12T13:43:15.766Z,2.63
2023-05-12T13:45:18.368Z,2.25
2023-05-12T13:47:21.098Z,2.17
2023-05-12T13:49:22.550Z,5.47
2023-05-12T13:51:24.097Z,3.70
2023-05-12T13:53:25.837Z,1.80
2023-05-12T13:55:27.600Z,4.18
2023-05-12T13:57:29.180Z,5.03
2023-05-12T13:59:31.417Z,4.22
2023-05-12T14:01:32.963Z,2.50
2023-05-12T14:03:34.877Z,4.25
2023-05-12T14:05:36.421Z,2.78
2023-05-12T14:07:38.025Z,3.15
2023-05-12T14:09:39.502Z,3.25
2023-05-12T14:11:41.088Z,2.63
2023-05-12T14:13:42.841Z,2.22
2023-05-12T14:15:49.305Z,3.72
2023-05-12T14:17:51.513Z,3.58
2023-05-12T14:19:53.048Z,8.65
2023-05-12T14:21:54.588Z,3.88
2023-05-12T14:23:56.071Z,2.38
2023-05-12T14:25:57.948Z,4.68
2023-05-12T14:27:59.475Z,9.18
2023-05-12T14:30:00.983Z,2.67
2023-05-12T14:32:04.318Z,4.53
2023-05-12T14:34:05.907Z,4.20
2023-05-12T14:36:08.831Z,4.10
2023-05-12T14:38:10.655Z,5.93
2023-05-12T14:40:12.803Z,1.63
2023-05-12T14:42:14.269Z,9.77
2023-05-12T14:44:16.012Z,4.03
2023-05-12T14:46:17.584Z,3.15
2023-05-12T14:48:19.269Z,4.07
2023-05-12T14:50:20.849Z,2.30
2023-05-12T14:52:22.433Z,2.45
2023-05-12T14:54:25.892Z,8.13
2023-05-12T14:56:27.794Z,5.38
2023-05-12T14:58:29.322Z,10.20
2023-05-12T15:00:30.963Z,5.57
2023-05-12T15:02:34.130Z,4.93
2023-05-12T15:04:35.725Z,4.32
2023-05-12T15:06:38.093Z,9.02
2023-05-12T15:08:39.591Z,7.60
2023-05-12T15:10:41.053Z,11.25
2023-05-12T15:12:42.564Z,6.55
2023-05-12T15:14:44.106Z,3.70
2023-05-12T15:16:46.152Z,5.10
2023-05-12T15:18:47.755Z,5.57
2023-05-12T15:20:49.240Z,5.38
2023-05-12T15:22:50.832Z,2.13
2023-05-12T15:24:52.355Z,3.10
2023-05-12T15:26:53.865Z,7.30
2023-05-12T15:28:56.069Z,2.65
2023-05-12T15:30:57.806Z,5.45
2023-05-12T15:32:59.686Z,2.33
2023-05-12T15:35:01.357Z,4.57
2023-05-12T15:37:02.940Z,5.72
2023-05-12T15:39:05.153Z,4.60
2023-05-12T15:41:06.646Z,5.38
2023-05-12T15:43:08.476Z,2.20
2023-05-12T15:45:10.493Z,5.07
2023-05-12T15:47:12.242Z,3.80
2023-05-12T15:49:14.305Z,5.60
2023-05-12T15:51:15.829Z,5.93
2023-05-12T15:53:17.330Z,6.55
2023-05-12T15:55:19.254Z,10.20
2023-05-12T15:57:21.019Z,2.75
2023-05-12T15:59:22.751Z,2.83
2023-05-12T16:01:25.067Z,6.45
2023-05-12T16:03:27.244Z,6.55
2023-05-12T16:05:29.400Z,2.20
2023-05-12T16:07:31.203Z,6.85
2023-05-12T16:09:32.697Z,3.45
2023-05-12T16:11:34.431Z,4.80
2023-05-12T16:13:35.965Z,3.38
2023-05-12T16:15:37.575Z,6.78
2023-05-12T16:17:39.113Z,4.38
2023-05-12T16:19:40.630Z,6.07
2023-05-12T16:21:42.970Z,2.42
2023-05-12T16:23:44.444Z,2.80
2023-05-12T16:25:45.905Z,4.45
2023-05-12T16:27:47.384Z,3.97
2023-05-12T16:29:50.404Z,2.60
2023-05-12T16:31:52.102Z,1.95
2023-05-12T16:33:53.802Z,2.60
2023-05-12T16:35:55.388Z,1.98
2023-05-12T16:37:57.171Z,5.85
2023-05-12T16:39:58.900Z,4.55
2023-05-12T16:42:00.476Z,4.13
2023-05-12T16:44:02.204Z,5.05
2023-05-12T16:46:04.216Z,5.55
2023-05-12T16:48:06.338Z,7.07
2023-05-12T16:50:08.477Z,2.50
2023-05-12T16:52:11.937Z,7.20
2023-05-12T16:54:13.898Z,2.13
2023-05-12T16:56:15.372Z,2.45
2023-05-12T16:58:16.955Z,7.07
2023-05-12T17:00:18.852Z,10.38
2023-05-12T17:02:20.488Z,8.63
2023-05-12T17:04:22.090Z,2.40
2023-05-12T17:06:23.653Z,5.32
2023-05-12T17:08:25.221Z,2.70
2023-05-12T17:10:26.814Z,3.92
2023-05-12T17:12:28.356Z,2.00
2023-05-12T17:14:30.353Z,3.58
2023-05-12T17:16:31.972Z,4.18
2023-05-12T17:20:54.900Z,5.78
2023-05-12T17:22:57.017Z,3.08
2023-05-12T17:24:58.523Z,10.15
2023-05-12T17:27:00.414Z,3.53
2023-05-12T17:29:02.451Z,6.13
2023-05-12T17:31:04.395Z,4.07
2023-05-12T17:33:07.662Z,4.93
2023-05-12T17:35:10.017Z,1.83
2023-05-12T17:37:11.849Z,2.90
2023-05-12T17:39:15.890Z,4.93
2023-05-12T17:41:18.264Z,5.75
2023-05-12T17:43:21.355Z,3.15
2023-05-12T17:45:23.265Z,3.38
2023-05-12T17:47:26.014Z,2.40
2023-05-12T17:49:27.704Z,3.70
2023-05-12T17:51:29.957Z,2.75
2023-05-12T17:53:32.364Z,2.10
2023-05-12T17:55:33.827Z,2.60
2023-05-12T17:57:35.320Z,6.75
2023-05-12T17:59:36.895Z,2.42
2023-05-12T18:01:38.589Z,6.97
2023-05-12T18:03:40.353Z,2.17
2023-05-12T18:05:42.197Z,2.20
2023-05-12T18:07:43.673Z,4.63
2023-05-12T18:09:45.649Z,5.40
2023-05-12T18:11:50.058Z,4.03
2023-05-12T18:13:53.700Z,8.70
2023-05-12T18:15:55.184Z,3.38
2023-05-12T18:17:57.914Z,6.85
2023-05-12T18:19:59.507Z,7.03
2023-05-12T18:22:01.300Z,1.92
2023-05-12T18:24:02.892Z,5.88
2023-05-12T18:26:04.364Z,3.95
2023-05-12T18:28:07.435Z,5.53
2023-05-12T18:30:09.520Z,8.73
2023-05-12T18:32:10.988Z,1.83
2023-05-12T18:34:12.455Z,5.30
2023-05-12T18:36:16.079Z,5.95
2023-05-12T18:38:18.083Z,5.25
2023-05-12T18:40:19.755Z,4.97
2023-05-12T18:42:21.268Z,3.90
2023-05-12T18:44:23.013Z,2.28
2023-05-12T18:46:24.526Z,5.43
2023-05-12T18:48:26.028Z,10.80
2023-05-12T18:50:27.696Z,1.90
2023-05-12T18:52:29.167Z,4.72
2023-05-12T18:54:30.690Z,3.38
2023-05-12T18:56:32.217Z,3.67
2023-05-12T18:58:33.720Z,6.50
2023-05-12T19:00:35.634Z,3.58
2023-05-12T19:02:37.481Z,3.40
2023-05-12T19:04:39.271Z,6.18
2023-05-12T19:06:40.868Z,4.50
2023-05-12T19:08:42.328Z,5.88
2023-05-12T19:10:43.898Z,2.80
2023-05-12T19:12:45.412Z,6.25
2023-05-12T19:14:46.942Z,4.32
2023-05-12T19:16:48.593Z,3.83
2023-05-12T19:18:50.523Z,2.80
2023-05-12T19:20:52.152Z,6.93
2023-05-12T19:22:53.714Z,4.68
2023-05-12T19:24:55.809Z,4.63
2023-05-12T19:26:57.617Z,5.93
2023-05-12T19:29:00.484Z,6.57
2023-05-12T19:31:02.076Z,5.93
2023-05-12T19:33:03.690Z,4.60
2023-05-12T19:35:06.741Z,4.97
2023-05-12T19:37:08.277Z,4.57
2023-05-12T19:39:09.822Z,6.32
2023-05-12T19:41:11.581Z,4.40
2023-05-12T19:43:13.093Z,4.43
2023-05-12T19:45:15.602Z,3.75
2023-05-12T19:47:17.315Z,8.63
2023-05-12T19:49:18.804Z,2.47
2023-05-12T19:51:20.413Z,3.13
2023-05-12T19:53:21.907Z,4.07
2023-05-12T19:55:23.607Z,3.65
2023-05-12T19:57:25.341Z,4.43
2023-05-12T19:59:26.923Z,2.85
2023-05-12T20:01:28.694Z,2.95
2023-05-12T20:03:31.221Z,3.22
2023-05-12T20:05:36.611Z,5.55
2023-05-12T20:07:39.011Z,4.07
2023-05-12T20:09:40.577Z,5.18
2023-05-12T20:11:42.126Z,5.70
2023-05-12T20:13:43.671Z,4.75
2023-05-12T20:15:45.394Z,3.15
2023-05-12T20:17:46.956Z,10.00
2023-05-12T20:19:48.515Z,6.50
2023-05-12T20:21:49.976Z,5.60
2023-05-12T20:23:51.546Z,5.45
2023-05-12T20:25:53.339Z,8.82
2023-05-12T20:27:55.630Z,9.27
2023-05-12T20:29:57.164Z,3.65
2023-05-12T20:31:58.904Z,5.55
2023-05-12T20:34:00.364Z,9.57
2023-05-12T20:36:01.865Z,3.70
2023-05-12T20:38:03.312Z,3.85
2023-05-12T20:40:07.078Z,2.75
2023-05-12T20:42:11.134Z,4.40
2023-05-12T20:44:12.652Z,4.15
2023-05-12T20:46:14.256Z,4.60
2023-05-12T20:48:15.913Z,4.60
2023-05-12T20:50:17.571Z,7.05
2023-05-12T20:52:19.148Z,8.70
2023-05-12T20:54:20.663Z,4.25
2023-05-12T20:56:26.456Z,5.43
2023-05-12T20:58:27.992Z,5.72
2023-05-12T21:00:29.484Z,8.20
2023-05-12T21:02:31.083Z,6.43
2023-05-12T21:04:32.749Z,4.22
2023-05-12T21:06:35.913Z,5.45
2023-05-12T21:08:37.751Z,5.88
2023-05-12T21:10:40.123Z,3.97
2023-05-12T21:12:41.701Z,7.40
2023-05-12T21:14:45.178Z,5.13
2023-05-12T21:16:46.768Z,9.73
2023-05-12T21:18:48.391Z,12.07
2023-05-12T21:20:50.039Z,6.63
2023-05-12T21:22:51.529Z,9.32
2023-05-12T21:24:53.102Z,6.28
2023-05-12T21:26:54.611Z,5.22
2023-05-12T21:28:56.238Z,4.97
2023-05-12T21:30:57.715Z,4.05
2023-05-12T21:32:59.350Z,9.75
2023-05-12T21:35:00.849Z,9.52
2023-05-12T21:37:02.394Z,4.40
2023-05-12T21:39:03.996Z,9.02
2023-05-12T21:41:05.513Z,3.13
2023-05-12T21:43:07.073Z,6.07
2023-05-12T21:45:09.167Z,4.25
2023-05-12T21:47:10.728Z,8.13
2023-05-12T21:49:12.214Z,12.27
2023-05-12T21:51:14.138Z,4.43
2023-05-12T21:53:15.619Z,6.07
2023-05-12T21:55:17.133Z,10.88
2023-05-12T21:57:18.610Z,2.45
2023-05-12T21:59:20.702Z,4.28
2023-05-12T22:01:22.292Z,5.65
2023-05-12T22:03:25.335Z,4.38
2023-05-12T22:05:26.876Z,7.35
2023-05-12T22:07:29.416Z,4.95
2023-05-12T22:09:31.369Z,5.88
2023-05-12T22:11:33.412Z,3.63
2023-05-12T22:13:34.991Z,3.25
2023-05-12T22:15:36.590Z,12.70
2023-05-12T22:17:38.104Z,8.98
2023-05-12T22:19:39.623Z,5.88
2023-05-12T22:21:41.179Z,8.98
2023-05-12T22:23:42.780Z,9.70
2023-05-12T22:25:44.267Z,4.88
2023-05-12T22:27:45.798Z,4.85
2023-05-12T22:29:47.369Z,5.57
2023-05-12T22:31:49.034Z,12.60
2023-05-12T22:33:50.961Z,4.10
2023-05-12T22:35:52.476Z,3.97
2023-05-12T22:37:54.712Z,7.35
2023-05-12T22:39:56.180Z,7.25
2023-05-12T22:41:57.662Z,4.45
2023-05-12T22:43:59.242Z,5.45
2023-05-12T22:46:00.838Z,3.20
2023-05-12T22:48:02.499Z,5.50
2023-05-12T22:50:04.277Z,5.55
2023-05-12T22:52:06.120Z,8.85
2023-05-12T22:54:07.857Z,11.77
2023-05-12T22:56:09.383Z,5.78
2023-05-12T22:58:11.653Z,7.85
2023-05-12T23:00:13.767Z,5.95
2023-05-12T23:02:15.620Z,3.05
2023-05-12T23:04:17.231Z,12.23
2023-05-12T23:06:19.004Z,4.25
2023-05-12T23:08:20.722Z,13.57
2023-05-12T23:10:22.322Z,8.15
2023-05-12T23:12:23.982Z,4.75
2023-05-12T23:14:25.476Z,3.95
2023-05-12T23:16:27.199Z,6.38
2023-05-12T23:18:28.727Z,4.03
2023-05-12T23:20:30.340Z,9.52
2023-05-12T23:22:31.822Z,10.13
2023-05-12T23:24:34.116Z,7.13
2023-05-12T23:26:35.596Z,8.10
2023-05-12T23:28:37.127Z,5.93
2023-05-12T23:30:38.573Z,3.72
2023-05-12T23:32:40.262Z,5.43
2023-05-12T23:34:41.843Z,4.85
2023-05-12T23:36:43.321Z,16.30
2023-05-12T23:38:44.983Z,7.68
2023-05-12T23:40:46.501Z,5.53
2023-05-12T23:42:47.982Z,8.68
2023-05-12T23:44:49.461Z,5.88
2023-05-12T23:46:51.032Z,6.45
2023-05-12T23:48:52.581Z,7.57
2023-05-12T23:50:54.295Z,7.85
2023-05-12T23:52:56.473Z,9.07
2023-05-12T23:54:57.981Z,4.78
2023-05-12T23:56:59.461Z,5.80
2023-05-12T23:59:00.924Z,7.88
